sensor_id;sensor_type;location;lat;lon;timestamp;pressure;altitude;pressure_sealevel;temperature;humidity
50292;BME280;36190;54.980;73.388;2023-03-01T00:01:03;99242.16;;;0.46;84.81
50292;BME280;36190;54.980;73.388;2023-03-01T00:03:31;99231.78;;;0.45;84.90
50292;BME280;36190;54.980;73.388;2023-03-01T00:05:59;99262.19;;;0.47;84.84
50292;BME280;36190;54.980;73.388;2023-03-01T00:08:28;99228.19;;;0.46;84.74
50292;BME280;36190;54.980;73.388;2023-03-01T00:11:05;99232.34;;;0.48;84.77
50292;BME280;36190;54.980;73.388;2023-03-01T00:13:33;99232.34;;;0.48;84.71
50292;BME280;36190;54.980;73.388;2023-03-01T00:16:02;99230.41;;;0.50;84.72
50292;BME280;36190;54.980;73.388;2023-03-01T00:18:30;99217.28;;;0.50;84.68
50292;BME280;36190;54.980;73.388;2023-03-01T00:20:58;99232.06;;;0.51;84.71
50292;BME280;36190;54.980;73.388;2023-03-01T00:23:26;99216.31;;;0.51;84.71
50292;BME280;36190;54.980;73.388;2023-03-01T00:25:55;99219.69;;;0.53;84.63
50292;BME280;36190;54.980;73.388;2023-03-01T00:28:22;99221.19;;;0.56;84.39
50292;BME280;36190;54.980;73.388;2023-03-01T00:30:50;99220.09;;;0.59;84.58
50292;BME280;36190;54.980;73.388;2023-03-01T00:33:17;99223.81;;;0.56;84.64
50292;BME280;36190;54.980;73.388;2023-03-01T00:35:45;99219.97;;;0.60;84.43
50292;BME280;36190;54.980;73.388;2023-03-01T00:38:12;99208.63;;;0.60;84.46
50292;BME280;36190;54.980;73.388;2023-03-01T00:40:40;99221.75;;;0.60;84.34
50292;BME280;36190;54.980;73.388;2023-03-01T00:43:09;99204.22;;;0.60;84.44
50292;BME280;36190;54.980;73.388;2023-03-01T00:45:37;99217.22;;;0.62;84.43
50292;BME280;36190;54.980;73.388;2023-03-01T00:48:05;99230.34;;;0.62;84.31
50292;BME280;36190;54.980;73.388;2023-03-01T00:50:32;99211.25;;;0.60;84.34
50292;BME280;36190;54.980;73.388;2023-03-01T00:53:00;99215.53;;;0.61;84.45
50292;BME280;36190;54.980;73.388;2023-03-01T00:55:27;99211.97;;;0.62;84.29
50292;BME280;36190;54.980;73.388;2023-03-01T00:57:55;99203.38;;;0.60;84.53
50292;BME280;36190;54.980;73.388;2023-03-01T01:00:24;99205.59;;;0.64;84.55
50292;BME280;36190;54.980;73.388;2023-03-01T01:02:53;99206.44;;;0.65;84.63
50292;BME280;36190;54.980;73.388;2023-03-01T01:05:21;99201.19;;;0.65;84.57
50292;BME280;36190;54.980;73.388;2023-03-01T01:07:48;99203.69;;;0.66;84.54
50292;BME280;36190;54.980;73.388;2023-03-01T01:10:16;99192.34;;;0.66;84.45
50292;BME280;36190;54.980;73.388;2023-03-01T01:12:45;99204.63;;;0.65;84.60
50292;BME280;36190;54.980;73.388;2023-03-01T01:15:13;99179.06;;;0.58;84.72
50292;BME280;36190;54.980;73.388;2023-03-01T01:17:43;99193.19;;;0.66;84.65
50292;BME280;36190;54.980;73.388;2023-03-01T01:20:11;99196.63;;;0.67;84.72
50292;BME280;36190;54.980;73.388;2023-03-01T01:22:39;99191.13;;;0.70;84.97
50292;BME280;36190;54.980;73.388;2023-03-01T01:25:07;99195.41;;;0.71;84.60
50292;BME280;36190;54.980;73.388;2023-03-01T01:27:34;99190.97;;;0.72;84.71
50292;BME280;36190;54.980;73.388;2023-03-01T01:30:03;99193.03;;;0.68;84.74
50292;BME280;36190;54.980;73.388;2023-03-01T01:32:31;99197.19;;;0.71;84.86
50292;BME280;36190;54.980;73.388;2023-03-01T01:35:00;99200.66;;;0.71;84.82
50292;BME280;36190;54.980;73.388;2023-03-01T01:37:27;99197.19;;;0.71;84.73
50292;BME280;36190;54.980;73.388;2023-03-01T01:39:59;99201.47;;;0.72;84.63
50292;BME280;36190;54.980;73.388;2023-03-01T01:42:30;99199.00;;;0.70;84.71
50292;BME280;36190;54.980;73.388;2023-03-01T01:45:31;99186.56;;;0.72;84.84
50292;BME280;36190;54.980;73.388;2023-03-01T01:48:03;99179.66;;;0.71;84.79
50292;BME280;36190;54.980;73.388;2023-03-01T01:50:35;99184.91;;;0.71;84.77
50292;BME280;36190;54.980;73.388;2023-03-01T01:53:08;99187.38;;;0.73;84.71
50292;BME280;36190;54.980;73.388;2023-03-01T01:55:37;99184.91;;;0.71;84.76
50292;BME280;36190;54.980;73.388;2023-03-01T01:58:09;99168.88;;;0.74;84.77
50292;BME280;36190;54.980;73.388;2023-03-01T02:00:38;99172.47;;;0.73;84.95
50292;BME280;36190;54.980;73.388;2023-03-01T02:03:09;99163.63;;;0.74;85.01
50292;BME280;36190;54.980;73.388;2023-03-01T02:05:45;99168.59;;;0.77;84.81
50292;BME280;36190;54.980;73.388;2023-03-01T02:08:16;99161.69;;;0.76;84.76
50292;BME280;36190;54.980;73.388;2023-03-01T02:10:46;99169.31;;;0.79;84.94
50292;BME280;36190;54.980;73.388;2023-03-01T02:13:15;99163.09;;;0.80;84.93
50292;BME280;36190;54.980;73.388;2023-03-01T02:15:43;99163.66;;;0.84;85.07
50292;BME280;36190;54.980;73.388;2023-03-01T02:18:12;99138.22;;;0.75;84.77
50292;BME280;36190;54.980;73.388;2023-03-01T02:20:50;99166.00;;;0.87;85.02
50292;BME280;36190;54.980;73.388;2023-03-01T02:23:23;99156.44;;;0.86;84.98
50292;BME280;36190;54.980;73.388;2023-03-01T02:25:56;99159.94;;;0.87;84.97
50292;BME280;36190;54.980;73.388;2023-03-01T02:28:34;99144.28;;;0.85;84.86
50292;BME280;36190;54.980;73.388;2023-03-01T02:31:03;99143.19;;;0.88;85.09
50292;BME280;36190;54.980;73.388;2023-03-01T02:33:51;99159.91;;;0.96;85.06
50292;BME280;36190;54.980;73.388;2023-03-01T02:36:22;99156.19;;;0.99;85.01
50292;BME280;36190;54.980;73.388;2023-03-01T02:38:53;99149.28;;;0.98;85.01
50292;BME280;36190;54.980;73.388;2023-03-01T02:41:23;99154.25;;;1.01;84.79
50292;BME280;36190;54.980;73.388;2023-03-01T02:43:55;99154.97;;;1.03;85.02
50292;BME280;36190;54.980;73.388;2023-03-01T02:46:24;99151.38;;;1.04;84.98
50292;BME280;36190;54.980;73.388;2023-03-01T02:48:54;99151.09;;;1.07;84.93
50292;BME280;36190;54.980;73.388;2023-03-01T02:51:34;99137.69;;;1.11;85.13
50292;BME280;36190;54.980;73.388;2023-03-01T02:54:13;99139.47;;;1.10;84.94
50292;BME280;36190;54.980;73.388;2023-03-01T02:56:44;99137.94;;;1.07;85.00
50292;BME280;36190;54.980;73.388;2023-03-01T02:59:16;99131.47;;;1.12;85.33
50292;BME280;36190;54.980;73.388;2023-03-01T03:01:45;99137.13;;;1.17;85.02
50292;BME280;36190;54.980;73.388;2023-03-01T03:04:15;99115.16;;;1.08;85.08
50292;BME280;36190;54.980;73.388;2023-03-01T03:06:44;99134.38;;;1.28;84.97
50292;BME280;36190;54.980;73.388;2023-03-01T03:09:12;99135.47;;;1.35;84.96
50292;BME280;36190;54.980;73.388;2023-03-01T03:11:40;99140.44;;;1.39;84.74
50292;BME280;36190;54.980;73.388;2023-03-01T03:14:09;99133.53;;;1.37;84.95
50292;BME280;36190;54.980;73.388;2023-03-01T03:16:42;99132.25;;;1.42;85.05
50292;BME280;36190;54.980;73.388;2023-03-01T03:19:10;99123.41;;;1.43;85.20
50292;BME280;36190;54.980;73.388;2023-03-01T03:21:37;99120.50;;;1.46;85.07
50292;BME280;36190;54.980;73.388;2023-03-01T03:24:05;99123.53;;;1.51;85.08
50292;BME280;36190;54.980;73.388;2023-03-01T03:26:33;99117.16;;;1.54;85.25
50292;BME280;36190;54.980;73.388;2023-03-01T03:29:00;99106.09;;;1.60;85.51
50292;BME280;36190;54.980;73.388;2023-03-01T03:31:28;99114.66;;;1.62;85.51
50292;BME280;36190;54.980;73.388;2023-03-01T03:33:57;99111.59;;;1.67;85.71
50292;BME280;36190;54.980;73.388;2023-03-01T03:36:25;99112.00;;;1.72;85.54
50292;BME280;36190;54.980;73.388;2023-03-01T03:38:52;99105.34;;;1.77;85.62
50292;BME280;36190;54.980;73.388;2023-03-01T03:41:20;99094.44;;;1.72;85.62
50292;BME280;36190;54.980;73.388;2023-03-01T03:43:47;99099.94;;;1.79;85.57
50292;BME280;36190;54.980;73.388;2023-03-01T03:46:15;99103.56;;;1.78;85.60
50292;BME280;36190;54.980;73.388;2023-03-01T03:48:45;99086.69;;;1.71;85.92
50292;BME280;36190;54.980;73.388;2023-03-01T03:51:15;99085.56;;;1.73;85.90
50292;BME280;36190;54.980;73.388;2023-03-01T03:53:45;99090.41;;;1.78;85.91
50292;BME280;36190;54.980;73.388;2023-03-01T03:56:12;99095.66;;;1.78;85.94
50292;BME280;36190;54.980;73.388;2023-03-01T03:58:40;99089.44;;;1.79;86.24
50292;BME280;36190;54.980;73.388;2023-03-01T04:01:07;99084.56;;;1.84;86.19
50292;BME280;36190;54.980;73.388;2023-03-01T04:03:35;99088.56;;;1.88;86.41
50292;BME280;36190;54.980;73.388;2023-03-01T04:06:03;99083.84;;;1.92;86.34
50292;BME280;36190;54.980;73.388;2023-03-01T04:08:33;99080.53;;;1.90;86.15
50292;BME280;36190;54.980;73.388;2023-03-01T04:11:03;99076.38;;;1.87;86.17
50292;BME280;36190;54.980;73.388;2023-03-01T04:13:45;99079.69;;;1.89;86.28
50292;BME280;36190;54.980;73.388;2023-03-01T04:16:12;99072.47;;;1.91;86.24
50292;BME280;36190;54.980;73.388;2023-03-01T04:18:39;99074.16;;;1.92;86.25
50292;BME280;36190;54.980;73.388;2023-03-01T04:21:07;99073.19;;;1.94;86.34
50292;BME280;36190;54.980;73.388;2023-03-01T04:23:36;99061.53;;;1.96;86.35
50292;BME280;36190;54.980;73.388;2023-03-01T04:26:04;99068.84;;;2.02;86.42
50292;BME280;36190;54.980;73.388;2023-03-01T04:28:33;99045.47;;;1.99;86.24
50292;BME280;36190;54.980;73.388;2023-03-01T04:31:04;99050.91;;;2.16;86.26
50292;BME280;36190;54.980;73.388;2023-03-01T04:33:39;99050.16;;;2.24;86.21
50292;BME280;36190;54.980;73.388;2023-03-01T04:36:08;99053.50;;;2.26;86.00
50292;BME280;36190;54.980;73.388;2023-03-01T04:38:38;99049.91;;;2.27;85.96
50292;BME280;36190;54.980;73.388;2023-03-01T04:41:07;99055.38;;;2.33;86.05
50292;BME280;36190;54.980;73.388;2023-03-01T04:43:36;99047.34;;;2.35;85.55
50292;BME280;36190;54.980;73.388;2023-03-01T04:46:05;99035.44;;;2.31;85.53
50292;BME280;36190;54.980;73.388;2023-03-01T04:48:35;99035.31;;;2.32;85.59
50292;BME280;36190;54.980;73.388;2023-03-01T04:51:02;99030.72;;;2.34;85.56
50292;BME280;36190;54.980;73.388;2023-03-01T04:53:33;99030.56;;;2.36;85.56
50292;BME280;36190;54.980;73.388;2023-03-01T04:56:03;99034.03;;;2.37;85.46
50292;BME280;36190;54.980;73.388;2023-03-01T04:58:31;99031.09;;;2.40;85.53
50292;BME280;36190;54.980;73.388;2023-03-01T05:00:59;99030.78;;;2.43;85.54
50292;BME280;36190;54.980;73.388;2023-03-01T05:03:26;99026.22;;;2.45;85.60
50292;BME280;36190;54.980;73.388;2023-03-01T05:05:54;99028.41;;;2.50;85.43
50292;BME280;36190;54.980;73.388;2023-03-01T05:08:25;99020.06;;;2.54;85.30
50292;BME280;36190;54.980;73.388;2023-03-01T05:10:53;99020.06;;;2.54;85.39
50292;BME280;36190;54.980;73.388;2023-03-01T05:13:24;99018.38;;;2.53;85.27
50292;BME280;36190;54.980;73.388;2023-03-01T05:15:54;99019.91;;;2.56;85.47
50292;BME280;36190;54.980;73.388;2023-03-01T05:18:22;99016.66;;;2.62;85.40
50292;BME280;36190;54.980;73.388;2023-03-01T05:20:54;99011.25;;;2.64;85.37
50292;BME280;36190;54.980;73.388;2023-03-01T05:23:24;99015.03;;;2.61;85.22
50292;BME280;36190;54.980;73.388;2023-03-01T05:25:51;99022.25;;;2.59;85.20
50292;BME280;36190;54.980;73.388;2023-03-01T05:28:19;99023.22;;;2.58;85.15
50292;BME280;36190;54.980;73.388;2023-03-01T05:30:49;99008.09;;;2.60;85.36
50292;BME280;36190;54.980;73.388;2023-03-01T05:33:17;99003.03;;;2.67;85.25
50292;BME280;36190;54.980;73.388;2023-03-01T05:35:48;99013.78;;;2.73;85.12
50292;BME280;36190;54.980;73.388;2023-03-01T05:38:16;99009.06;;;2.77;84.84
50292;BME280;36190;54.980;73.388;2023-03-01T05:40:45;98990.25;;;2.72;84.76
50292;BME280;36190;54.980;73.388;2023-03-01T05:43:14;98999.81;;;2.91;84.60
50292;BME280;36190;54.980;73.388;2023-03-01T05:45:44;99004.16;;;3.00;84.22
50292;BME280;36190;54.980;73.388;2023-03-01T05:48:13;99013.03;;;2.99;84.10
50292;BME280;36190;54.980;73.388;2023-03-01T05:50:42;99010.41;;;2.99;83.92
50292;BME280;36190;54.980;73.388;2023-03-01T05:53:11;99013.84;;;3.00;83.88
50292;BME280;36190;54.980;73.388;2023-03-01T05:55:39;99003.84;;;3.03;83.80
50292;BME280;36190;54.980;73.388;2023-03-01T05:58:11;99001.25;;;3.12;83.78
50292;BME280;36190;54.980;73.388;2023-03-01T06:00:40;98993.41;;;3.20;83.37
50292;BME280;36190;54.980;73.388;2023-03-01T06:03:10;99008.94;;;3.23;82.92
50292;BME280;36190;54.980;73.388;2023-03-01T06:05:39;98999.72;;;3.27;82.94
50292;BME280;36190;54.980;73.388;2023-03-01T06:08:08;98998.94;;;3.35;82.88
50292;BME280;36190;54.980;73.388;2023-03-01T06:10:36;98996.31;;;3.35;82.70
50292;BME280;36190;54.980;73.388;2023-03-01T06:13:04;98997.78;;;3.38;82.55
50292;BME280;36190;54.980;73.388;2023-03-01T06:15:32;98984.94;;;3.35;82.50
50292;BME280;36190;54.980;73.388;2023-03-01T06:17:59;98988.84;;;3.30;82.50
50292;BME280;36190;54.980;73.388;2023-03-01T06:20:28;98984.22;;;3.24;82.49
50292;BME280;36190;54.980;73.388;2023-03-01T06:22:57;98995.84;;;3.13;82.28
50292;BME280;36190;54.980;73.388;2023-03-01T06:25:26;98987.34;;;3.01;82.36
50292;BME280;36190;54.980;73.388;2023-03-01T06:27:54;98994.72;;;2.98;82.62
50292;BME280;36190;54.980;73.388;2023-03-01T06:30:23;98990.59;;;2.95;82.85
50292;BME280;36190;54.980;73.388;2023-03-01T06:32:51;99001.13;;;2.95;82.94
50292;BME280;36190;54.980;73.388;2023-03-01T06:35:26;98992.31;;;3.05;82.77
50292;BME280;36190;54.980;73.388;2023-03-01T06:37:57;98992.34;;;3.13;82.68
50292;BME280;36190;54.980;73.388;2023-03-01T06:40:25;98994.72;;;3.16;82.58
50292;BME280;36190;54.980;73.388;2023-03-01T06:42:52;98994.00;;;3.14;82.47
50292;BME280;36190;54.980;73.388;2023-03-01T06:45:20;98989.06;;;3.11;82.36
50292;BME280;36190;54.980;73.388;2023-03-01T06:47:48;99001.84;;;3.06;82.20
50292;BME280;36190;54.980;73.388;2023-03-01T06:50:17;99009.75;;;3.06;82.30
50292;BME280;36190;54.980;73.388;2023-03-01T06:52:45;98993.50;;;3.10;82.35
50292;BME280;36190;54.980;73.388;2023-03-01T06:55:15;98996.13;;;3.10;82.18
50292;BME280;36190;54.980;73.388;2023-03-01T06:57:43;98990.72;;;3.12;82.17
50292;BME280;36190;54.980;73.388;2023-03-01T07:00:11;98989.06;;;3.11;82.22
50292;BME280;36190;54.980;73.388;2023-03-01T07:02:39;98976.03;;;3.09;82.22
50292;BME280;36190;54.980;73.388;2023-03-01T07:05:07;98970.47;;;3.12;82.00
50292;BME280;36190;54.980;73.388;2023-03-01T07:07:34;98972.16;;;3.22;82.13
50292;BME280;36190;54.980;73.388;2023-03-01T07:10:03;98956.53;;;3.28;81.89
50292;BME280;36190;54.980;73.388;2023-03-01T07:12:32;98959.22;;;3.37;81.81
50292;BME280;36190;54.980;73.388;2023-03-01T07:15:00;98956.47;;;3.47;81.48
50292;BME280;36190;54.980;73.388;2023-03-01T07:17:27;98959.31;;;3.53;81.27
50292;BME280;36190;54.980;73.388;2023-03-01T07:19:55;98961.13;;;3.53;81.09
50292;BME280;36190;54.980;73.388;2023-03-01T07:22:23;98951.72;;;3.50;81.14
50292;BME280;36190;54.980;73.388;2023-03-01T07:24:50;98941.47;;;3.47;81.05
50292;BME280;36190;54.980;73.388;2023-03-01T07:27:18;98929.28;;;3.46;80.92
50292;BME280;36190;54.980;73.388;2023-03-01T07:29:47;98928.63;;;3.52;80.88
50292;BME280;36190;54.980;73.388;2023-03-01T07:32:14;98933.28;;;3.58;80.75
50292;BME280;36190;54.980;73.388;2023-03-01T07:34:41;98931.16;;;3.62;80.78
50292;BME280;36190;54.980;73.388;2023-03-01T07:37:09;98921.28;;;3.64;80.26
50292;BME280;36190;54.980;73.388;2023-03-01T07:39:36;98921.59;;;3.61;80.14
50292;BME280;36190;54.980;73.388;2023-03-01T07:42:04;98919.75;;;3.53;80.09
50292;BME280;36190;54.980;73.388;2023-03-01T07:44:31;98920.38;;;3.47;80.06
50292;BME280;36190;54.980;73.388;2023-03-01T07:47:00;98920.69;;;3.44;80.27
50292;BME280;36190;54.980;73.388;2023-03-01T07:49:28;98916.56;;;3.41;80.30
50292;BME280;36190;54.980;73.388;2023-03-01T07:51:55;98920.50;;;3.37;80.37
50292;BME280;36190;54.980;73.388;2023-03-01T07:54:23;98906.81;;;3.34;80.48
50292;BME280;36190;54.980;73.388;2023-03-01T07:56:51;98909.75;;;3.30;80.48
50292;BME280;36190;54.980;73.388;2023-03-01T07:59:20;98911.44;;;3.32;80.68
50292;BME280;36190;54.980;73.388;2023-03-01T08:01:49;98897.88;;;3.26;80.41
50292;BME280;36190;54.980;73.388;2023-03-01T08:04:18;98901.19;;;3.28;80.60
50292;BME280;36190;54.980;73.388;2023-03-01T08:06:45;98905.00;;;3.34;80.56
50292;BME280;36190;54.980;73.388;2023-03-01T08:09:13;98901.88;;;3.39;80.63
50292;BME280;36190;54.980;73.388;2023-03-01T08:11:40;98906.84;;;3.42;80.49
50292;BME280;36190;54.980;73.388;2023-03-01T08:14:08;98899.94;;;3.41;80.63
50292;BME280;36190;54.980;73.388;2023-03-01T08:16:36;98895.66;;;3.40;80.71
50292;BME280;36190;54.980;73.388;2023-03-01T08:19:04;98893.66;;;3.42;80.82
50292;BME280;36190;54.980;73.388;2023-03-01T08:21:33;98893.19;;;3.47;80.72
50292;BME280;36190;54.980;73.388;2023-03-01T08:24:02;98887.75;;;3.48;80.81
50292;BME280;36190;54.980;73.388;2023-03-01T08:26:30;98876.72;;;3.44;80.68
50292;BME280;36190;54.980;73.388;2023-03-01T08:28:58;98880.47;;;3.42;80.79
50292;BME280;36190;54.980;73.388;2023-03-01T08:31:27;98890.69;;;3.45;81.04
50292;BME280;36190;54.980;73.388;2023-03-01T08:33:57;98871.25;;;3.46;81.22
50292;BME280;36190;54.980;73.388;2023-03-01T08:36:26;98854.75;;;3.36;80.93
50292;BME280;36190;54.980;73.388;2023-03-01T08:38:56;98883.78;;;3.44;81.05
50292;BME280;36190;54.980;73.388;2023-03-01T08:41:24;98869.59;;;3.45;81.10
50292;BME280;36190;54.980;73.388;2023-03-01T08:43:52;98869.44;;;3.38;81.09
50292;BME280;36190;54.980;73.388;2023-03-01T08:46:24;98881.13;;;3.36;81.21
50292;BME280;36190;54.980;73.388;2023-03-01T08:48:52;98879.94;;;3.30;81.24
50292;BME280;36190;54.980;73.388;2023-03-01T08:51:20;98868.88;;;3.26;81.60
50292;BME280;36190;54.980;73.388;2023-03-01T08:53:48;98874.31;;;3.25;81.77
50292;BME280;36190;54.980;73.388;2023-03-01T08:56:17;98866.56;;;3.23;81.69
50292;BME280;36190;54.980;73.388;2023-03-01T08:58:46;98864.28;;;3.28;81.70
50292;BME280;36190;54.980;73.388;2023-03-01T09:01:15;98855.06;;;3.33;81.76
50292;BME280;36190;54.980;73.388;2023-03-01T09:03:42;98844.19;;;3.36;81.93
50292;BME280;36190;54.980;73.388;2023-03-01T09:06:11;98847.50;;;3.38;81.82
50292;BME280;36190;54.980;73.388;2023-03-01T09:08:40;98842.91;;;3.40;81.66
50292;BME280;36190;54.980;73.388;2023-03-01T09:11:10;98821.78;;;3.32;81.74
50292;BME280;36190;54.980;73.388;2023-03-01T09:13:39;98838.28;;;3.42;81.67
50292;BME280;36190;54.980;73.388;2023-03-01T09:16:08;98840.78;;;3.43;81.61
50292;BME280;36190;54.980;73.388;2023-03-01T09:18:35;98831.38;;;3.41;81.73
50292;BME280;36190;54.980;73.388;2023-03-01T09:21:04;98824.97;;;3.43;81.81
50292;BME280;36190;54.980;73.388;2023-03-01T09:23:33;98823.63;;;3.48;81.78
50292;BME280;36190;54.980;73.388;2023-03-01T09:26:02;98822.66;;;3.49;81.80
50292;BME280;36190;54.980;73.388;2023-03-01T09:28:29;98828.75;;;3.49;81.71
50292;BME280;36190;54.980;73.388;2023-03-01T09:30:59;98817.53;;;3.47;81.85
50292;BME280;36190;54.980;73.388;2023-03-01T09:33:28;98817.72;;;3.46;81.92
50292;BME280;36190;54.980;73.388;2023-03-01T09:35:59;98825.78;;;3.44;81.92
50292;BME280;36190;54.980;73.388;2023-03-01T09:38:27;98814.41;;;3.43;81.88
50292;BME280;36190;54.980;73.388;2023-03-01T09:40:55;98808.31;;;3.43;81.96
50292;BME280;36190;54.980;73.388;2023-03-01T09:43:26;98798.75;;;3.42;82.18
50292;BME280;36190;54.980;73.388;2023-03-01T09:46:03;98791.50;;;3.44;82.02
50292;BME280;36190;54.980;73.388;2023-03-01T09:48:38;98791.16;;;3.47;82.16
50292;BME280;36190;54.980;73.388;2023-03-01T09:51:14;98788.72;;;3.46;81.88
50292;BME280;36190;54.980;73.388;2023-03-01T09:53:44;98780.28;;;3.42;82.06
50292;BME280;36190;54.980;73.388;2023-03-01T09:56:16;98761.97;;;3.32;81.90
50292;BME280;36190;54.980;73.388;2023-03-01T09:58:50;98793.47;;;3.42;82.00
50292;BME280;36190;54.980;73.388;2023-03-01T10:01:30;98786.06;;;3.46;81.97
50292;BME280;36190;54.980;73.388;2023-03-01T10:04:19;98782.94;;;3.50;82.00
50292;BME280;36190;54.980;73.388;2023-03-01T10:06:59;98783.25;;;3.47;81.83
50292;BME280;36190;54.980;73.388;2023-03-01T10:09:30;98776.16;;;3.39;81.72
50292;BME280;36190;54.980;73.388;2023-03-01T10:12:01;98777.97;;;3.39;82.03
50292;BME280;36190;54.980;73.388;2023-03-01T10:14:33;98772.69;;;3.39;82.11
50292;BME280;36190;54.980;73.388;2023-03-01T10:17:06;98786.19;;;3.36;82.29
50292;BME280;36190;54.980;73.388;2023-03-01T10:19:39;98762.13;;;3.30;82.05
50292;BME280;36190;54.980;73.388;2023-03-01T10:22:13;98763.78;;;3.23;82.15
50292;BME280;36190;54.980;73.388;2023-03-01T10:24:43;98767.53;;;3.12;82.17
50292;BME280;36190;54.980;73.388;2023-03-01T10:27:17;98747.06;;;2.98;82.46
50292;BME280;36190;54.980;73.388;2023-03-01T10:29:51;98757.63;;;3.06;82.60
50292;BME280;36190;54.980;73.388;2023-03-01T10:32:23;98767.00;;;3.00;82.59
50292;BME280;36190;54.980;73.388;2023-03-01T10:34:50;98752.16;;;2.91;82.72
50292;BME280;36190;54.980;73.388;2023-03-01T10:37:20;98743.22;;;2.84;82.79
50292;BME280;36190;54.980;73.388;2023-03-01T10:40:01;98745.16;;;2.82;83.03
50292;BME280;36190;54.980;73.388;2023-03-01T10:42:32;98749.28;;;2.76;82.93
50292;BME280;36190;54.980;73.388;2023-03-01T10:45:19;98742.97;;;2.69;83.20
50292;BME280;36190;54.980;73.388;2023-03-01T10:48:06;98738.03;;;2.66;83.61
50292;BME280;36190;54.980;73.388;2023-03-01T10:50:37;98739.84;;;2.65;83.35
50292;BME280;36190;54.980;73.388;2023-03-01T10:53:20;98741.84;;;2.71;83.55
50292;BME280;36190;54.980;73.388;2023-03-01T10:55:56;98737.94;;;2.75;83.46
50292;BME280;36190;54.980;73.388;2023-03-01T10:58:24;98726.56;;;2.75;83.34
50292;BME280;36190;54.980;73.388;2023-03-01T11:00:54;98731.00;;;2.74;83.45
50292;BME280;36190;54.980;73.388;2023-03-01T11:03:25;98727.19;;;2.69;83.42
50292;BME280;36190;54.980;73.388;2023-03-01T11:05:56;98728.97;;;2.60;83.52
50292;BME280;36190;54.980;73.388;2023-03-01T11:08:39;98718.06;;;2.55;83.81
50292;BME280;36190;54.980;73.388;2023-03-01T11:11:23;98723.81;;;2.50;83.97
50292;BME280;36190;54.980;73.388;2023-03-01T11:13:55;98726.25;;;2.43;83.98
50292;BME280;36190;54.980;73.388;2023-03-01T11:16:25;98717.00;;;2.39;84.03
50292;BME280;36190;54.980;73.388;2023-03-01T11:19:03;98716.34;;;2.37;84.43
50292;BME280;36190;54.980;73.388;2023-03-01T11:21:33;98718.47;;;2.33;84.39
50292;BME280;36190;54.980;73.388;2023-03-01T11:24:03;98700.84;;;2.26;84.53
50292;BME280;36190;54.980;73.388;2023-03-01T11:26:34;98709.69;;;2.25;84.42
50292;BME280;36190;54.980;73.388;2023-03-01T11:29:07;98693.19;;;2.14;84.67
50292;BME280;36190;54.980;73.388;2023-03-01T11:31:40;98708.22;;;2.22;84.79
50292;BME280;36190;54.980;73.388;2023-03-01T11:34:12;98696.16;;;2.11;84.97
50292;BME280;36190;54.980;73.388;2023-03-01T11:36:46;98697.00;;;2.20;85.14
50292;BME280;36190;54.980;73.388;2023-03-01T11:39:22;98694.84;;;2.15;85.05
50292;BME280;36190;54.980;73.388;2023-03-01T11:42:01;98699.28;;;2.15;85.02
50292;BME280;36190;54.980;73.388;2023-03-01T11:44:34;98682.47;;;2.08;85.20
50292;BME280;36190;54.980;73.388;2023-03-01T11:47:16;98679.97;;;2.06;85.57
50292;BME280;36190;54.980;73.388;2023-03-01T11:52:41;98669.16;;;2.09;85.79
50292;BME280;36190;54.980;73.388;2023-03-01T11:55:29;98670.50;;;2.13;85.65
50292;BME280;36190;54.980;73.388;2023-03-01T11:58:14;98665.56;;;2.10;85.84
50292;BME280;36190;54.980;73.388;2023-03-01T12:00:58;98662.41;;;2.06;85.84
50292;BME280;36190;54.980;73.388;2023-03-01T12:03:44;98655.31;;;2.07;86.01
50292;BME280;36190;54.980;73.388;2023-03-01T12:06:27;98652.34;;;2.02;85.96
50292;BME280;36190;54.980;73.388;2023-03-01T12:09:14;98656.00;;;2.09;86.07
50292;BME280;36190;54.980;73.388;2023-03-01T12:11:57;98649.06;;;2.08;86.09
50292;BME280;36190;54.980;73.388;2023-03-01T12:14:50;98635.25;;;2.06;86.04
50292;BME280;36190;54.980;73.388;2023-03-01T12:17:49;98640.69;;;2.04;86.31
50292;BME280;36190;54.980;73.388;2023-03-01T12:20:26;98645.63;;;2.08;86.23
50292;BME280;36190;54.980;73.388;2023-03-01T12:23:14;98644.66;;;2.09;86.11
50292;BME280;36190;54.980;73.388;2023-03-01T12:25:49;98630.47;;;2.01;86.07
50292;BME280;36190;54.980;73.388;2023-03-01T12:28:37;98639.53;;;2.07;86.07
50292;BME280;36190;54.980;73.388;2023-03-01T12:31:29;98635.88;;;2.00;86.01
50292;BME280;36190;54.980;73.388;2023-03-01T12:34:06;98636.88;;;1.99;86.25
50292;BME280;36190;54.980;73.388;2023-03-01T12:36:49;98630.47;;;2.01;86.38
50292;BME280;36190;54.980;73.388;2023-03-01T12:39:33;98626.84;;;2.02;86.47
50292;BME280;36190;54.980;73.388;2023-03-01T12:42:13;98620.78;;;2.02;86.66
50292;BME280;36190;54.980;73.388;2023-03-01T12:44:54;98624.06;;;2.04;86.49
50292;BME280;36190;54.980;73.388;2023-03-01T12:47:39;98618.50;;;2.07;86.60
50292;BME280;36190;54.980;73.388;2023-03-01T12:50:17;98629.34;;;2.04;86.66
50292;BME280;36190;54.980;73.388;2023-03-01T12:52:49;98618.16;;;2.02;86.58
50292;BME280;36190;54.980;73.388;2023-03-01T12:55:26;98612.19;;;2.00;86.53
50292;BME280;36190;54.980;73.388;2023-03-01T12:58:04;98612.53;;;1.97;86.87
50292;BME280;36190;54.980;73.388;2023-03-01T13:00:39;98600.16;;;1.89;86.96
50292;BME280;36190;54.980;73.388;2023-03-01T13:03:18;98606.94;;;2.00;86.94
50292;BME280;36190;54.980;73.388;2023-03-01T13:05:59;98614.03;;;1.99;86.83
50292;BME280;36190;54.980;73.388;2023-03-01T13:08:33;98610.03;;;1.95;86.91
50292;BME280;36190;54.980;73.388;2023-03-01T13:11:06;98612.53;;;1.97;86.95
50292;BME280;36190;54.980;73.388;2023-03-01T13:13:39;98618.78;;;1.96;86.78
50292;BME280;36190;54.980;73.388;2023-03-01T13:16:27;98613.38;;;1.97;87.07
50292;BME280;36190;54.980;73.388;2023-03-01T13:19:12;98616.00;;;1.97;87.00
50292;BME280;36190;54.980;73.388;2023-03-01T13:21:42;98619.75;;;1.95;87.07
50292;BME280;36190;54.980;73.388;2023-03-01T13:24:39;98610.88;;;1.96;87.03